<?xml version="1.0" encoding="UTF-8" standalone="no" ?>
<gpx xmlns="http://www.topografix.com/GPX/1/1" xmlns:xsi="http://www.w3.org/2001/XMLSchema-instance" xsi:schemaLocation="http://www.topografix.com/GPX/1/1 http://www.topografix.com/GPX/1/1/gpx.xsd" version="1.1" creator="VisuGPX - https://www.visugpx.com">
  <metadata>
    <name>Raid Bulles : Barsuraubois</name>
    <desc><![CDATA[parcours RAID BULLES EN CHAMPAGNE 375KM]]></desc>
  </metadata>
  <wpt lat="48.1461" lon="4.76948">
    <ele>206.1</ele>
    <name><![CDATA[Ravitaillement chaud]]></name>
  </wpt>
  <wpt lat="48.14803" lon="4.83346">
    <ele>208.6</ele>
    <name><![CDATA[Départ réel]]></name>
  </wpt>
  <wpt lat="48.13585" lon="4.66919">
    <ele>253.9</ele>
    <name><![CDATA[Gravel début section]]></name>
  </wpt>
  <wpt lat="48.21735" lon="4.71382">
    <ele>168.8</ele>
  </wpt>
  <trk>
    <name><![CDATA[36. Circuit de Couvignon Bergère-17237868]]></name>
    <extensions>
      <line xmlns="http://www.topografix.com/GPX/gpx_style/0/2">
        <color>ef0606</color>
        <width>4</width>
      </line>
    </extensions>
    <trkseg>
      <trkpt lat="48.20779" lon="4.64939">
        <ele>209</ele>
        <time>2024-07-03T07:45:04Z</time>
      </trkpt>
      <trkpt lat="48.20775" lon="4.64949">
        <ele>209</ele>
        <time>2024-07-03T07:45:05Z</time>
      </trkpt>
      <trkpt lat="48.20754" lon="4.64983">
        <ele>209</ele>
        <time>2024-07-03T07:45:11Z</time>
      </trkpt>
      <trkpt lat="48.20695" lon="4.64986">
        <ele>212</ele>
        <time>2024-07-03T07:45:21Z</time>
      </trkpt>
      <trkpt lat="48.20694" lon="4.64974">
        <ele>212</ele>
        <time>2024-07-03T07:45:23Z</time>
      </trkpt>
      <trkpt lat="48.20636" lon="4.64952">
        <ele>219</ele>
        <time>2024-07-03T07:45:33Z</time>
      </trkpt>
      <trkpt lat="48.20595" lon="4.64922">
        <ele>225</ele>
        <time>2024-07-03T07:45:42Z</time>
      </trkpt>
      <trkpt lat="48.20584" lon="4.64905">
        <ele>227</ele>
        <time>2024-07-03T07:45:44Z</time>
      </trkpt>
      <trkpt lat="48.20564" lon="4.64856">
        <ele>232</ele>
        <time>2024-07-03T07:45:51Z</time>
      </trkpt>
      <trkpt lat="48.20542" lon="4.64838">
        <ele>236</ele>
        <time>2024-07-03T07:45:56Z</time>
      </trkpt>
      <trkpt lat="48.20507" lon="4.64804">
        <ele>243</ele>
        <time>2024-07-03T07:46:03Z</time>
      </trkpt>
      <trkpt lat="48.20375" lon="4.64751">
        <ele>268</ele>
        <time>2024-07-03T07:46:27Z</time>
      </trkpt>
      <trkpt lat="48.20339" lon="4.6476">
        <ele>273</ele>
        <time>2024-07-03T07:46:34Z</time>
      </trkpt>
      <trkpt lat="48.20298" lon="4.64756">
        <ele>277</ele>
        <time>2024-07-03T07:46:41Z</time>
      </trkpt>
      <trkpt lat="48.20138" lon="4.64727">
        <ele>288</ele>
        <time>2024-07-03T07:47:10Z</time>
      </trkpt>
      <trkpt lat="48.19894" lon="4.64719">
        <ele>293</ele>
        <time>2024-07-03T07:47:53Z</time>
      </trkpt>
      <trkpt lat="48.19873" lon="4.64726">
        <ele>294</ele>
        <time>2024-07-03T07:47:57Z</time>
      </trkpt>
      <trkpt lat="48.19861" lon="4.64737">
        <ele>294</ele>
        <time>2024-07-03T07:48:00Z</time>
      </trkpt>
      <trkpt lat="48.19836" lon="4.6481">
        <ele>296</ele>
        <time>2024-07-03T07:48:09Z</time>
      </trkpt>
      <trkpt lat="48.19807" lon="4.64912">
        <ele>298</ele>
        <time>2024-07-03T07:48:23Z</time>
      </trkpt>
      <trkpt lat="48.19757" lon="4.65015">
        <ele>299</ele>
        <time>2024-07-03T07:48:38Z</time>
      </trkpt>
      <trkpt lat="48.19823" lon="4.65187">
        <ele>291</ele>
        <time>2024-07-03T07:49:01Z</time>
      </trkpt>
      <trkpt lat="48.19886" lon="4.65327">
        <ele>285</ele>
        <time>2024-07-03T07:49:21Z</time>
      </trkpt>
      <trkpt lat="48.19942" lon="4.65431">
        <ele>282</ele>
        <time>2024-07-03T07:49:37Z</time>
      </trkpt>
      <trkpt lat="48.19981" lon="4.65518">
        <ele>281</ele>
        <time>2024-07-03T07:49:49Z</time>
      </trkpt>
      <trkpt lat="48.20062" lon="4.65709">
        <ele>272</ele>
        <time>2024-07-03T07:50:16Z</time>
      </trkpt>
      <trkpt lat="48.20082" lon="4.65734">
        <ele>269</ele>
        <time>2024-07-03T07:50:21Z</time>
      </trkpt>
      <trkpt lat="48.201" lon="4.65744">
        <ele>267</ele>
        <time>2024-07-03T07:50:24Z</time>
      </trkpt>
      <trkpt lat="48.20125" lon="4.65768">
        <ele>263</ele>
        <time>2024-07-03T07:50:30Z</time>
      </trkpt>
      <trkpt lat="48.20141" lon="4.65793">
        <ele>260</ele>
        <time>2024-07-03T07:50:34Z</time>
      </trkpt>
      <trkpt lat="48.20146" lon="4.65806">
        <ele>258</ele>
        <time>2024-07-03T07:50:36Z</time>
      </trkpt>
      <trkpt lat="48.20141" lon="4.65812">
        <ele>259</ele>
        <time>2024-07-03T07:50:37Z</time>
      </trkpt>
      <trkpt lat="48.20072" lon="4.65822">
        <ele>266</ele>
        <time>2024-07-03T07:50:49Z</time>
      </trkpt>
      <trkpt lat="48.20048" lon="4.65821">
        <ele>268</ele>
        <time>2024-07-03T07:50:53Z</time>
      </trkpt>
      <trkpt lat="48.2" lon="4.65803">
        <ele>273</ele>
        <time>2024-07-03T07:51:02Z</time>
      </trkpt>
      <trkpt lat="48.19958" lon="4.65806">
        <ele>277</ele>
        <time>2024-07-03T07:51:10Z</time>
      </trkpt>
      <trkpt lat="48.19934" lon="4.65817">
        <ele>280</ele>
        <time>2024-07-03T07:51:14Z</time>
      </trkpt>
      <trkpt lat="48.19858" lon="4.6587">
        <ele>287</ele>
        <time>2024-07-03T07:51:29Z</time>
      </trkpt>
      <trkpt lat="48.19836" lon="4.65892">
        <ele>289</ele>
        <time>2024-07-03T07:51:34Z</time>
      </trkpt>
      <trkpt lat="48.19808" lon="4.6593">
        <ele>291</ele>
        <time>2024-07-03T07:51:40Z</time>
      </trkpt>
      <trkpt lat="48.19768" lon="4.65962">
        <ele>294</ele>
        <time>2024-07-03T07:51:48Z</time>
      </trkpt>
      <trkpt lat="48.19679" lon="4.66006">
        <ele>299</ele>
        <time>2024-07-03T07:52:05Z</time>
      </trkpt>
      <trkpt lat="48.196" lon="4.66027">
        <ele>304</ele>
        <time>2024-07-03T07:52:19Z</time>
      </trkpt>
      <trkpt lat="48.19576" lon="4.66041">
        <ele>305</ele>
        <time>2024-07-03T07:52:24Z</time>
      </trkpt>
      <trkpt lat="48.19519" lon="4.66112">
        <ele>309</ele>
        <time>2024-07-03T07:52:37Z</time>
      </trkpt>
      <trkpt lat="48.19486" lon="4.66169">
        <ele>311</ele>
        <time>2024-07-03T07:52:46Z</time>
      </trkpt>
      <trkpt lat="48.19464" lon="4.6619">
        <ele>312</ele>
        <time>2024-07-03T07:52:51Z</time>
      </trkpt>
      <trkpt lat="48.19457" lon="4.66204">
        <ele>313</ele>
        <time>2024-07-03T07:52:53Z</time>
      </trkpt>
      <trkpt lat="48.19454" lon="4.66224">
        <ele>313</ele>
        <time>2024-07-03T07:52:55Z</time>
      </trkpt>
      <trkpt lat="48.19448" lon="4.66237">
        <ele>314</ele>
        <time>2024-07-03T07:52:57Z</time>
      </trkpt>
      <trkpt lat="48.19363" lon="4.66207">
        <ele>312</ele>
        <time>2024-07-03T07:53:13Z</time>
      </trkpt>
      <trkpt lat="48.19269" lon="4.65952">
        <ele>286</ele>
        <time>2024-07-03T07:53:47Z</time>
      </trkpt>
      <trkpt lat="48.19135" lon="4.65827">
        <ele>271</ele>
        <time>2024-07-03T07:54:15Z</time>
      </trkpt>
      <trkpt lat="48.18925" lon="4.65892">
        <ele>283</ele>
        <time>2024-07-03T07:54:53Z</time>
      </trkpt>
      <trkpt lat="48.1881" lon="4.66015">
        <ele>281</ele>
        <time>2024-07-03T07:55:19Z</time>
      </trkpt>
      <trkpt lat="48.18772" lon="4.6614">
        <ele>285</ele>
        <time>2024-07-03T07:55:35Z</time>
      </trkpt>
      <trkpt lat="48.18747" lon="4.66349">
        <ele>279</ele>
        <time>2024-07-03T07:56:00Z</time>
      </trkpt>
      <trkpt lat="48.18796" lon="4.66502">
        <ele>288</ele>
        <time>2024-07-03T07:56:20Z</time>
      </trkpt>
      <trkpt lat="48.18717" lon="4.66613">
        <ele>269</ele>
        <time>2024-07-03T07:56:39Z</time>
      </trkpt>
      <trkpt lat="48.18682" lon="4.66673">
        <ele>258</ele>
        <time>2024-07-03T07:56:49Z</time>
      </trkpt>
      <trkpt lat="48.18637" lon="4.6673">
        <ele>249</ele>
        <time>2024-07-03T07:56:59Z</time>
      </trkpt>
      <trkpt lat="48.18625" lon="4.6674">
        <ele>247</ele>
        <time>2024-07-03T07:57:02Z</time>
      </trkpt>
      <trkpt lat="48.18417" lon="4.66765">
        <ele>243</ele>
        <time>2024-07-03T07:57:39Z</time>
      </trkpt>
      <trkpt lat="48.18107" lon="4.66879">
        <ele>245</ele>
        <time>2024-07-03T07:58:36Z</time>
      </trkpt>
      <trkpt lat="48.18266" lon="4.66509">
        <ele>248</ele>
        <time>2024-07-03T07:59:28Z</time>
      </trkpt>
      <trkpt lat="48.18189" lon="4.66441">
        <ele>253</ele>
        <time>2024-07-03T07:59:44Z</time>
      </trkpt>
      <trkpt lat="48.17904" lon="4.66241">
        <ele>302</ele>
        <time>2024-07-03T08:00:40Z</time>
      </trkpt>
      <trkpt lat="48.17845" lon="4.66191">
        <ele>311</ele>
        <time>2024-07-03T08:00:52Z</time>
      </trkpt>
      <trkpt lat="48.17631" lon="4.65955">
        <ele>324</ele>
        <time>2024-07-03T08:01:39Z</time>
      </trkpt>
      <trkpt lat="48.17536" lon="4.65823">
        <ele>319</ele>
        <time>2024-07-03T08:02:02Z</time>
      </trkpt>
      <trkpt lat="48.17391" lon="4.6555">
        <ele>299</ele>
        <time>2024-07-03T08:02:44Z</time>
      </trkpt>
      <trkpt lat="48.17384" lon="4.65541">
        <ele>297</ele>
        <time>2024-07-03T08:02:45Z</time>
      </trkpt>
      <trkpt lat="48.17486" lon="4.65319">
        <ele>302</ele>
        <time>2024-07-03T08:03:17Z</time>
      </trkpt>
      <trkpt lat="48.17467" lon="4.6508">
        <ele>297</ele>
        <time>2024-07-03T08:03:46Z</time>
      </trkpt>
      <trkpt lat="48.17685" lon="4.65161">
        <ele>312</ele>
        <time>2024-07-03T08:04:26Z</time>
      </trkpt>
      <trkpt lat="48.18089" lon="4.65302">
        <ele>302</ele>
        <time>2024-07-03T08:05:40Z</time>
      </trkpt>
      <trkpt lat="48.18295" lon="4.65322">
        <ele>286</ele>
        <time>2024-07-03T08:06:16Z</time>
      </trkpt>
      <trkpt lat="48.18372" lon="4.65261">
        <ele>271</ele>
        <time>2024-07-03T08:06:32Z</time>
      </trkpt>
      <trkpt lat="48.18558" lon="4.6514">
        <ele>239</ele>
        <time>2024-07-03T08:07:08Z</time>
      </trkpt>
      <trkpt lat="48.18447" lon="4.64888">
        <ele>235</ele>
        <time>2024-07-03T08:07:44Z</time>
      </trkpt>
      <trkpt lat="48.18405" lon="4.64744">
        <ele>237</ele>
        <time>2024-07-03T08:08:02Z</time>
      </trkpt>
      <trkpt lat="48.18614" lon="4.64673">
        <ele>219</ele>
        <time>2024-07-03T08:08:41Z</time>
      </trkpt>
      <trkpt lat="48.18854" lon="4.64692">
        <ele>217</ele>
        <time>2024-07-03T08:09:23Z</time>
      </trkpt>
      <trkpt lat="48.18862" lon="4.6462">
        <ele>218</ele>
        <time>2024-07-03T08:09:32Z</time>
      </trkpt>
      <trkpt lat="48.18855" lon="4.6454">
        <ele>218</ele>
        <time>2024-07-03T08:09:42Z</time>
      </trkpt>
      <trkpt lat="48.18859" lon="4.64356">
        <ele>220</ele>
        <time>2024-07-03T08:10:03Z</time>
      </trkpt>
      <trkpt lat="48.18906" lon="4.63951">
        <ele>217</ele>
        <time>2024-07-03T08:10:52Z</time>
      </trkpt>
      <trkpt lat="48.18921" lon="4.6385">
        <ele>215</ele>
        <time>2024-07-03T08:11:04Z</time>
      </trkpt>
      <trkpt lat="48.18952" lon="4.63741">
        <ele>215</ele>
        <time>2024-07-03T08:11:18Z</time>
      </trkpt>
      <trkpt lat="48.18995" lon="4.63628">
        <ele>216</ele>
        <time>2024-07-03T08:11:34Z</time>
      </trkpt>
      <trkpt lat="48.19027" lon="4.6357">
        <ele>215</ele>
        <time>2024-07-03T08:11:43Z</time>
      </trkpt>
      <trkpt lat="48.19047" lon="4.63545">
        <ele>215</ele>
        <time>2024-07-03T08:11:47Z</time>
      </trkpt>
      <trkpt lat="48.19064" lon="4.63558">
        <ele>217</ele>
        <time>2024-07-03T08:11:51Z</time>
      </trkpt>
      <trkpt lat="48.19082" lon="4.63587">
        <ele>220</ele>
        <time>2024-07-03T08:11:56Z</time>
      </trkpt>
      <trkpt lat="48.19089" lon="4.63601">
        <ele>222</ele>
        <time>2024-07-03T08:11:58Z</time>
      </trkpt>
      <trkpt lat="48.19095" lon="4.63637">
        <ele>225</ele>
        <time>2024-07-03T08:12:02Z</time>
      </trkpt>
      <trkpt lat="48.19121" lon="4.63641">
        <ele>226</ele>
        <time>2024-07-03T08:12:07Z</time>
      </trkpt>
      <trkpt lat="48.19133" lon="4.63647">
        <ele>227</ele>
        <time>2024-07-03T08:12:09Z</time>
      </trkpt>
      <trkpt lat="48.19209" lon="4.63731">
        <ele>238</ele>
        <time>2024-07-03T08:12:26Z</time>
      </trkpt>
      <trkpt lat="48.19238" lon="4.63715">
        <ele>237</ele>
        <time>2024-07-03T08:12:31Z</time>
      </trkpt>
      <trkpt lat="48.19277" lon="4.63706">
        <ele>236</ele>
        <time>2024-07-03T08:12:38Z</time>
      </trkpt>
      <trkpt lat="48.19437" lon="4.63688">
        <ele>233</ele>
        <time>2024-07-03T08:13:07Z</time>
      </trkpt>
      <trkpt lat="48.19446" lon="4.63682">
        <ele>232</ele>
        <time>2024-07-03T08:13:09Z</time>
      </trkpt>
      <trkpt lat="48.19445" lon="4.6365">
        <ele>229</ele>
        <time>2024-07-03T08:13:12Z</time>
      </trkpt>
      <trkpt lat="48.1945" lon="4.63638">
        <ele>228</ele>
        <time>2024-07-03T08:13:14Z</time>
      </trkpt>
      <trkpt lat="48.19513" lon="4.63605">
        <ele>225</ele>
        <time>2024-07-03T08:13:26Z</time>
      </trkpt>
      <trkpt lat="48.19605" lon="4.63591">
        <ele>224</ele>
        <time>2024-07-03T08:13:42Z</time>
      </trkpt>
      <trkpt lat="48.1973" lon="4.63554">
        <ele>225</ele>
        <time>2024-07-03T08:14:05Z</time>
      </trkpt>
      <trkpt lat="48.19806" lon="4.63538">
        <ele>222</ele>
        <time>2024-07-03T08:14:19Z</time>
      </trkpt>
      <trkpt lat="48.19892" lon="4.63535">
        <ele>220</ele>
        <time>2024-07-03T08:14:34Z</time>
      </trkpt>
      <trkpt lat="48.19917" lon="4.63467">
        <ele>215</ele>
        <time>2024-07-03T08:14:43Z</time>
      </trkpt>
      <trkpt lat="48.19925" lon="4.63456">
        <ele>215</ele>
        <time>2024-07-03T08:14:45Z</time>
      </trkpt>
      <trkpt lat="48.19941" lon="4.63449">
        <ele>213</ele>
        <time>2024-07-03T08:14:48Z</time>
      </trkpt>
      <trkpt lat="48.20035" lon="4.63434">
        <ele>212</ele>
        <time>2024-07-03T08:15:05Z</time>
      </trkpt>
      <trkpt lat="48.20047" lon="4.63421">
        <ele>211</ele>
        <time>2024-07-03T08:15:08Z</time>
      </trkpt>
      <trkpt lat="48.20044" lon="4.63329">
        <ele>208</ele>
        <time>2024-07-03T08:15:18Z</time>
      </trkpt>
      <trkpt lat="48.20015" lon="4.63106">
        <ele>197</ele>
        <time>2024-07-03T08:15:45Z</time>
      </trkpt>
      <trkpt lat="48.20018" lon="4.6309">
        <ele>196</ele>
        <time>2024-07-03T08:15:47Z</time>
      </trkpt>
      <trkpt lat="48.20118" lon="4.6305">
        <ele>197</ele>
        <time>2024-07-03T08:16:06Z</time>
      </trkpt>
      <trkpt lat="48.20196" lon="4.63029">
        <ele>198</ele>
        <time>2024-07-03T08:16:20Z</time>
      </trkpt>
      <trkpt lat="48.2025" lon="4.63027">
        <ele>199</ele>
        <time>2024-07-03T08:16:29Z</time>
      </trkpt>
      <trkpt lat="48.20282" lon="4.63032">
        <ele>200</ele>
        <time>2024-07-03T08:16:35Z</time>
      </trkpt>
      <trkpt lat="48.20293" lon="4.63026">
        <ele>199</ele>
        <time>2024-07-03T08:16:37Z</time>
      </trkpt>
      <trkpt lat="48.20325" lon="4.63019">
        <ele>199</ele>
        <time>2024-07-03T08:16:43Z</time>
      </trkpt>
      <trkpt lat="48.20489" lon="4.63007">
        <ele>194</ele>
        <time>2024-07-03T08:17:12Z</time>
      </trkpt>
      <trkpt lat="48.20589" lon="4.62986">
        <ele>191</ele>
        <time>2024-07-03T08:17:30Z</time>
      </trkpt>
      <trkpt lat="48.20657" lon="4.62962">
        <ele>191</ele>
        <time>2024-07-03T08:17:43Z</time>
      </trkpt>
      <trkpt lat="48.20732" lon="4.62917">
        <ele>189</ele>
        <time>2024-07-03T08:17:57Z</time>
      </trkpt>
      <trkpt lat="48.20781" lon="4.63042">
        <ele>191</ele>
        <time>2024-07-03T08:18:14Z</time>
      </trkpt>
      <trkpt lat="48.20837" lon="4.63165">
        <ele>192</ele>
        <time>2024-07-03T08:18:32Z</time>
      </trkpt>
      <trkpt lat="48.2092" lon="4.6337">
        <ele>196</ele>
        <time>2024-07-03T08:19:00Z</time>
      </trkpt>
      <trkpt lat="48.2091" lon="4.63456">
        <ele>197</ele>
        <time>2024-07-03T08:19:11Z</time>
      </trkpt>
      <trkpt lat="48.2092" lon="4.63469">
        <ele>198</ele>
        <time>2024-07-03T08:19:13Z</time>
      </trkpt>
      <trkpt lat="48.20927" lon="4.63493">
        <ele>200</ele>
        <time>2024-07-03T08:19:16Z</time>
      </trkpt>
      <trkpt lat="48.20938" lon="4.63558">
        <ele>203</ele>
        <time>2024-07-03T08:19:24Z</time>
      </trkpt>
      <trkpt lat="48.20959" lon="4.63644">
        <ele>208</ele>
        <time>2024-07-03T08:19:35Z</time>
      </trkpt>
      <trkpt lat="48.20982" lon="4.63716">
        <ele>212</ele>
        <time>2024-07-03T08:19:44Z</time>
      </trkpt>
      <trkpt lat="48.2101" lon="4.63858">
        <ele>215</ele>
        <time>2024-07-03T08:20:02Z</time>
      </trkpt>
      <trkpt lat="48.20992" lon="4.63919">
        <ele>211</ele>
        <time>2024-07-03T08:20:10Z</time>
      </trkpt>
      <trkpt lat="48.20981" lon="4.64008">
        <ele>213</ele>
        <time>2024-07-03T08:20:21Z</time>
      </trkpt>
      <trkpt lat="48.20985" lon="4.64011">
        <ele>213</ele>
        <time>2024-07-03T08:20:21Z</time>
      </trkpt>
      <trkpt lat="48.20996" lon="4.64003">
        <ele>214</ele>
        <time>2024-07-03T08:20:24Z</time>
      </trkpt>
      <trkpt lat="48.21046" lon="4.63983">
        <ele>217</ele>
        <time>2024-07-03T08:20:33Z</time>
      </trkpt>
      <trkpt lat="48.21064" lon="4.63986">
        <ele>219</ele>
        <time>2024-07-03T08:20:36Z</time>
      </trkpt>
      <trkpt lat="48.21121" lon="4.63989">
        <ele>224</ele>
        <time>2024-07-03T08:20:46Z</time>
      </trkpt>
      <trkpt lat="48.21164" lon="4.63999">
        <ele>227</ele>
        <time>2024-07-03T08:20:54Z</time>
      </trkpt>
      <trkpt lat="48.21353" lon="4.64092">
        <ele>248</ele>
        <time>2024-07-03T08:21:29Z</time>
      </trkpt>
      <trkpt lat="48.21449" lon="4.64143">
        <ele>262</ele>
        <time>2024-07-03T08:21:47Z</time>
      </trkpt>
      <trkpt lat="48.21484" lon="4.64165">
        <ele>265</ele>
        <time>2024-07-03T08:21:54Z</time>
      </trkpt>
      <trkpt lat="48.21506" lon="4.64181">
        <ele>269</ele>
        <time>2024-07-03T08:21:59Z</time>
      </trkpt>
      <trkpt lat="48.21538" lon="4.64217">
        <ele>275</ele>
        <time>2024-07-03T08:22:06Z</time>
      </trkpt>
      <trkpt lat="48.21585" lon="4.64298">
        <ele>279</ele>
        <time>2024-07-03T08:22:18Z</time>
      </trkpt>
      <trkpt lat="48.21603" lon="4.64315">
        <ele>282</ele>
        <time>2024-07-03T08:22:22Z</time>
      </trkpt>
      <trkpt lat="48.21622" lon="4.64346">
        <ele>284</ele>
        <time>2024-07-03T08:22:27Z</time>
      </trkpt>
      <trkpt lat="48.21669" lon="4.64377">
        <ele>288</ele>
        <time>2024-07-03T08:22:36Z</time>
      </trkpt>
      <trkpt lat="48.21718" lon="4.64432">
        <ele>291</ele>
        <time>2024-07-03T08:22:47Z</time>
      </trkpt>
      <trkpt lat="48.21761" lon="4.64507">
        <ele>294</ele>
        <time>2024-07-03T08:22:59Z</time>
      </trkpt>
      <trkpt lat="48.21761" lon="4.64528">
        <ele>294</ele>
        <time>2024-07-03T08:23:01Z</time>
      </trkpt>
      <trkpt lat="48.21724" lon="4.64574">
        <ele>292</ele>
        <time>2024-07-03T08:23:10Z</time>
      </trkpt>
      <trkpt lat="48.21707" lon="4.64631">
        <ele>292</ele>
        <time>2024-07-03T08:23:17Z</time>
      </trkpt>
      <trkpt lat="48.2165" lon="4.64606">
        <ele>290</ele>
        <time>2024-07-03T08:23:28Z</time>
      </trkpt>
      <trkpt lat="48.216" lon="4.64595">
        <ele>289</ele>
        <time>2024-07-03T08:23:37Z</time>
      </trkpt>
      <trkpt lat="48.21355" lon="4.64561">
        <ele>284</ele>
        <time>2024-07-03T08:24:21Z</time>
      </trkpt>
      <trkpt lat="48.21338" lon="4.64559">
        <ele>284</ele>
        <time>2024-07-03T08:24:24Z</time>
      </trkpt>
      <trkpt lat="48.21327" lon="4.64562">
        <ele>284</ele>
        <time>2024-07-03T08:24:26Z</time>
      </trkpt>
      <trkpt lat="48.21318" lon="4.64576">
        <ele>283</ele>
        <time>2024-07-03T08:24:28Z</time>
      </trkpt>
      <trkpt lat="48.21312" lon="4.64629">
        <ele>282</ele>
        <time>2024-07-03T08:24:34Z</time>
      </trkpt>
      <trkpt lat="48.21305" lon="4.64646">
        <ele>281</ele>
        <time>2024-07-03T08:24:37Z</time>
      </trkpt>
      <trkpt lat="48.21245" lon="4.64712">
        <ele>273</ele>
        <time>2024-07-03T08:24:50Z</time>
      </trkpt>
      <trkpt lat="48.21199" lon="4.64745">
        <ele>263</ele>
        <time>2024-07-03T08:24:59Z</time>
      </trkpt>
      <trkpt lat="48.21179" lon="4.64754">
        <ele>258</ele>
        <time>2024-07-03T08:25:03Z</time>
      </trkpt>
      <trkpt lat="48.2113" lon="4.64751">
        <ele>247</ele>
        <time>2024-07-03T08:25:12Z</time>
      </trkpt>
      <trkpt lat="48.21104" lon="4.6474">
        <ele>242</ele>
        <time>2024-07-03T08:25:16Z</time>
      </trkpt>
      <trkpt lat="48.21097" lon="4.64727">
        <ele>242</ele>
        <time>2024-07-03T08:25:18Z</time>
      </trkpt>
      <trkpt lat="48.21063" lon="4.6473">
        <ele>233</ele>
        <time>2024-07-03T08:25:24Z</time>
      </trkpt>
      <trkpt lat="48.21" lon="4.64763">
        <ele>218</ele>
        <time>2024-07-03T08:25:36Z</time>
      </trkpt>
      <trkpt lat="48.20784" lon="4.64807">
        <ele>207</ele>
        <time>2024-07-03T08:26:15Z</time>
      </trkpt>
      <trkpt lat="48.20781" lon="4.64839">
        <ele>208</ele>
        <time>2024-07-03T08:26:19Z</time>
      </trkpt>
      <trkpt lat="48.20802" lon="4.64857">
        <ele>207</ele>
        <time>2024-07-03T08:26:23Z</time>
      </trkpt>
      <trkpt lat="48.20808" lon="4.64882">
        <ele>207</ele>
        <time>2024-07-03T08:26:26Z</time>
      </trkpt>
      <trkpt lat="48.20797" lon="4.64915">
        <ele>208</ele>
        <time>2024-07-03T08:26:31Z</time>
      </trkpt>
      <trkpt lat="48.20782" lon="4.64935">
        <ele>208</ele>
        <time>2024-07-03T08:26:34Z</time>
      </trkpt>
    </trkseg>
  </trk>
</gpx>